Tiempo atmosférico en la estación meteorológica de Ávila, Ávila (1130 m.)

Fecha
DESCASC
Temp. máxima en grados centígrados (hora)
DESCASC
Temp. mínima en grados centígrados (hora)
DESCASC
Temp. media en grados centígrados
DESCASC
Racha de viento máxima en m/sg (hora)
DESCASC
Velocidad máxima media en intervalos de 10 minutos(hora)
DESCASC
Precipitaciones diarias en mm
DESCASC
Precipitaciones de 00:00 a 06:00 en mm
DESCASC
Precipitaciones de 06:00 a 12:00 en mm
DESCASC
Precipitaciones de 12:00 a 18:00 en mm
DESCASC
Precipitaciones de 18:00 a 24:00 en mm
DESCASC
23-11-2017 17.5 (14:00) 8.3 (06:10) 12.9 11.94 (21:20) 5.28 (21:20) 1.2 0 0 0 1.2
22-11-2017 17.5 (13:00) -0.3 (06:20) 8.6 8.89 (15:00) 5.28 (15:00) 0 0 0 0 0
21-11-2017 18.2 (15:00) 0 (07:40) 9.1 4.17 (17:00) 3.06 (20:40) 0 0 0 0 0
20-11-2017 17.9 (13:50) -0.4 (06:10) 8.7 5.28 (15:10) 3.06 (14:50) 0 0 0 0 0
19-11-2017 16.2 (15:30) -0.7 (-00:0) 7.8 5.56 (15:40) 3.61 (15:50) 0 0 0 0 0
18-11-2017 14.8 (13:20) 0.6 (00:00) 7.7 5.83 (16:10) 3.89 (16:10) 0 0 0 0 0
17-11-2017 16.6 (13:00) 0.9 (00:00) 8.8 5.56 (13:10) 3.89 (14:40) 0 0 0 0 0
16-11-2017 16.7 (13:40) -0.9 (-00:0) 7.9 5.28 (14:20) 3.61 (14:20) 0 0 0 0 0
15-11-2017 14.8 (14:20) -0.7 (-00:0) 7.1 7.5 (14:30) 5.28 (14:00) 0 0 0 0 0
14-11-2017 8.7 (16:10) -0.7 (-00:0) 4 6.11 (16:20) 3.61 (14:00) 0 0 0 0 0
13-11-2017 8.7 (14:20) 0.5 (00:00) 4.6 11.39 (15:30) 6.94 (16:20) 0 0 0 0 0
12-11-2017 15.5 (14:50) -0.1 (00:00) 7.7 8.61 (16:40) 5.83 (16:50) 0 0 0 0 0
11-11-2017 13.4 (15:00) 2.9 (00:00) 8.1 6.11 (15:40) 4.17 (16:30) 0 0 0 0 0
10-11-2017 12.1 (15:50) 0.7 (00:00) 6.4 9.44 (15:30) 5.28 (15:30) 0 0 0 0 0
09-11-2017 6.5 (15:10) -0.7 (-00:0) 2.9 9.72 (15:30) 5.83 (14:50) 0 0 0 0 0
08-11-2017 8.6 (14:40) 1.6 (00:00) 5.1 10 (15:10) 6.11 (20:20) 0 0 0 0 0
07-11-2017 13.8 (16:00) -1 (-00:0) 6.4 8.89 (17:20) 5.28 (17:00) 0 0 0 0 0
06-11-2017 8.8 (15:50) 0.7 (00:00) 4.8 9.44 (13:10) 5.28 (13:10) 0 0 0 0 0
05-11-2017 9.6 (17:10) 3.4 (00:00) 6.5 9.44 (15:30) 5.56 (16:30) 2 0.6 1.4 0 0
04-11-2017 12.8 (13:50) 7.4 (00:00) 10.1 10.83 (21:20) 6.39 (21:20) 16.6 8.8 0.6 5.6 1.6
03-11-2017 16.2 (15:20) 8.4 (00:00) 12.3 10.56 (04:40) 5.28 (13:50) 6.8 6.6 0.2 0 0
02-11-2017 14.7 (15:30) 10 (05:20) 12.3 10.28 (16:20) 6.11 (21:00) 0 0 0 0 0
01-11-2017 16.4 (14:20) 5.8 (00:00) 11.1 9.72 (11:50) 5.83 (11:50) 0 0 0 0 0
31-10-2017 17.1 (15:10) 3 (00:00) 10.1 8.06 (14:10) 4.44 (14:10) 0 0 0 0 0
30-10-2017 14.9 (17:10) 5.3 (00:00) 10.1 7.22 (14:30) 4.44 (13:20) 0 0 0 0 0
29-10-2017 17.7 (14:10) 2.8 (00:00) 10.3 8.06 (15:40) 4.72 (15:40) 0 0 0 0 0
28-10-2017 16.9 (18:10) 5.8 (00:00) 11.3 7.5 (16:10) 4.17 (16:00) 0 0 0 0 0
27-10-2017 22.9 (16:30) 7.5 (00:00) 15.2 9.17 (17:30) 5.83 (17:30) 0 0 0 0 0
26-10-2017 24.2 (14:50) 8.7 (00:00) 16.5 6.67 (16:50) 3.89 (00:50) 0 0 0 0 0

Gráficas

Temp. máximas Temp. mínimas Temp. medias Precipitaciones Rachas de viento máximas Velocidades máximas media en intervalos de 10 minutos

Datos horarios

Fecha y hora oficial Temperatura (ºC) Velocidad del viento (km/h) Dirección del viento Racha (km/h) Dirección de racha Precipitación (mm) Presión (hPa) Tendencia (hPa) Humedad (%)
2017-11-24 23:00:00 9.6 9 Sur 19 Sur 0 890.8 -0.2 56
2017-11-24 22:00:00 10.2 11 Sur 22 Sur 0 890.6 -0.2 58
2017-11-24 21:00:00 10 7 Sur 17 Sur 0 890.6 0.1 58
2017-11-24 20:00:00 10.9 11 Sur 21 Sur 0 891 0.6 56
2017-11-24 19:00:00 10.6 13 Este 21 Este 0 890.8 0.5 56
2017-11-24 18:00:00 12.2 8 Sudeste 23 Sur 0 890.5 0 51
2017-11-24 17:00:00 13.4 12 Sur 23 Sudeste 0 890.4 -0.3 55
2017-11-24 16:00:00 13.7 12 Sudoeste 25 Sur 0 890.3 -0.7 64
2017-11-24 15:00:00 14.3 11 Sudoeste 20 Sudoeste 0 890.5 -1.1 64
2017-11-24 14:00:00 13.6 8 Sur 30 Sur 0 890.7 -1.3 68
2017-11-24 13:00:00 12.7 13 Sur 27 Sur 0 891 -0.1 74
2017-11-24 12:00:00 11.4 6 Sudeste 13 Sur 0 891.6 0.9 83
2017-11-24 11:00:00 10.8 3 Sur 22 Sur 0 892 1.7 85
2017-11-24 10:00:00 10.5 8 Sudeste 24 Sudeste 0 891.1 0.9 84
2017-11-24 09:00:00 10.3 8 Sudeste 21 Sudeste 0 890.7 0.7 85
2017-11-24 08:00:00 9.8 11 Sudeste 20 Este 0 890.3 0.6 86
2017-11-24 07:00:00 9.4 10 Sur 18 Sur 0 890.2 0.3 83
2017-11-24 06:00:00 8.3 10 Sudeste 18 Sudeste 0 890 0 82
2017-11-24 05:00:00 8 11 Sudeste 17 Sudeste 0 889.7 0 77
2017-11-24 04:00:00 9.7 9 Sur 33 Sur 0 889.9 -0.4 69
2017-11-24 03:00:00 9.6 17 Sur 37 Sur 0 890 -1.4 74
2017-11-24 02:00:00 10.1 20 Sur 36 Sudoeste 0 889.7 -1.5 62
2017-11-24 01:00:00 9.8 16 Sur 44 Sur 0.4 890.3 -1.2 61
2017-11-24 00:00:00 10.2 15 Sur 35 Sur 0.2 891.4 0.3 62
2017-11-23 23:00:00 9.6 10 Sudeste 23 Sur 1 891.2 0.3 63
2017-11-23 22:00:00 11.6 12 Sudoeste 43 Sur 0 891.5 1.1 55
2017-11-23 21:00:00 12.4 11 Sur 27 Sur 0 891.1 1 37
2017-11-23 20:00:00 12.3 12 Sur 24 Sur 0 890.9 0.8 36
2017-11-23 19:00:00 12.3 9 Sudeste 18 Sudeste 0 890.4 0.6 37
2017-11-23 18:00:00 12.8 5 Sudeste 13 Sur 0 890.1 0.5 38
2017-11-23 17:00:00 14.2 6 Sur 21 Sur 0 890.1 0.5 35
2017-11-23 16:00:00 15.2 14 Sur 26 Sur 0 889.8 0.1 32
2017-11-23 15:00:00 16 13 Sur 31 Oeste 0 889.6 -0.4 32
2017-11-23 14:00:00 17.5 12 Sudoeste 31 Sudoeste 0 889.6 0 27
2017-11-23 13:00:00 16.9 14 Sur 25 Sur 0 889.7 0.8 33
2017-11-23 12:00:00 15.2 7 Sudoeste 14 Sur 0 890 1.7 32
2017-11-23 11:00:00 14.2 7 Sudoeste 25 Sur 0 889.6 1.7 32
2017-11-23 10:00:00 12.5 14 Sur 27 Sur 0 888.9 1.5 37
2017-11-23 09:00:00 9.8 8 Sudeste 18 Sudeste 0 888.3 1.3 48
2017-11-23 08:00:00 8.7 12 Sudeste 22 Sudeste 0 887.9 1.2 53
2017-11-23 07:00:00 9.8 9 Sudeste 20 Sur 0 887.4 1.2 47
2017-11-23 06:00:00 8.4 5 Sudeste 18 Sur 0 887 0.6 50
2017-11-23 05:00:00 11.4 12 Sur 32 Sur 0 886.7 0.1 38
2017-11-23 04:00:00 11.3 15 Sur 33 Sur 0 886.2 -0.5 39
2017-11-23 03:00:00 10.6 13 Sur 28 Sur 0 886.4 -0.4 41
2017-11-23 02:00:00 10.9 10 Sur 27 Sur 0 886.6 -0.3 39
2017-11-23 01:00:00 10 5 Sudeste 17 Sur 0 886.7 -0.1 42
2017-11-23 00:00:00 10.4 8 Sudeste 18 Sudeste 0 886.8 0.2 40
2017-11-22 23:00:00 10.5 12 Sudeste 23 Sudeste 0 886.9 0.4 38
2017-11-22 22:00:00 9.6 6 Sudeste 17 Sudeste 0 886.8 0.7 40
2017-11-22 21:00:00 11.4 6 Sudoeste 27 Sur 0 886.6 0.4 34
2017-11-22 20:00:00 11.8 8 Sur 18 Sudeste 0 886.5 0.3 32
2017-11-22 19:00:00 11.6 12 Sudeste 21 Sudeste 0 886.1 0 33
2017-11-22 18:00:00 13 8 Sur 20 Sudeste 0 886.2 0.1 32
2017-11-22 17:00:00 15.5 7 Sur 26 Sur 0 886.2 -0.3 27
2017-11-22 16:00:00 16.1 10 Sur 25 Sur 0 886.1 -1 26
2017-11-22 15:00:00 15.9 19 Sudeste 32 Sudeste 0 886.1 -1.9 28
2017-11-22 14:00:00 16.8 18 Sudeste 31 Sudeste 0 886.5 -1.9 27
2017-11-22 13:00:00 17.5 12 Sudeste 20 Sudeste 0 887.1 -1.5 27
2017-11-22 12:00:00 15.3 6 Sur 14 Sur 0 888 -0.4 27
2017-11-22 11:00:00 12.4 8 Sudeste 13 Sudeste 0 888.4 0.2 34
2017-11-22 10:00:00 9.4 10 Sudeste 20 Sudeste 0 888.6 0.2 40
2017-11-22 09:00:00 5.9 13 Sudeste 20 Sur 0 888.4 -0.1 48
2017-11-22 08:00:00 0.9 8 Sudeste 12 Sudeste 0 888.2 -0.8 61
2017-11-22 07:00:00 0.3 5 Sur 11 Sudeste 0 888.4 -1.2 66
2017-11-22 06:00:00 0.2 0 Calma 10 Sur 0 888.5 -1.6 66
2017-11-22 05:00:00 0.8 4 Sur 11 Sur 0 889 -1.6 65
2017-11-22 04:00:00 0.4 3 Sur 8 Sur 0 889.6 -1.6 70
2017-11-22 03:00:00 1.2 4 Sur 9 Sur 0 890.1 -1.4 68
2017-11-22 02:00:00 2.3 6 Sudeste 9 Sudoeste 0 890.6 -1.1 64
2017-11-22 01:00:00 2.7 3 Sudeste 10 Sur 0 891.2 -0.4 63
2017-11-22 00:00:00 4.1 4 Sudeste 13 Sur 0 891.5 -0.2 55
2017-11-21 23:00:00 5.4 5 Sudoeste 12 Sudeste 0 891.7 -0.5 53
2017-11-21 22:00:00 6.3 9 Sudeste 12 Sudeste 0 891.6 -0.6 51
2017-11-21 21:00:00 6.7 2 Nordeste 14 Sudeste 0 891.7 -0.3 50
2017-11-21 20:00:00 7.1 3 Sudeste 8 Sudeste 0 892.2 0.4 51
2017-11-21 19:00:00 9.4 5 Sudeste 10 Sudeste 0 892.2 0.5 43
2017-11-21 18:00:00 13.1 2 Sudeste 13 Oeste 0 892 -0.1 34
2017-11-21 17:00:00 16.7 4 Noroeste 15 Noroeste 0 891.8 -1 24
2017-11-21 16:00:00 18.1 3 Sur 12 Sur 0 891.7 -1.8 21
2017-11-21 15:00:00 17.9 4 Sudeste 11 Oeste 0 892.1 -2.1 20
2017-11-21 14:00:00 17.3 3 Norte 8 Sur 0 892.8 -1.7 23
2017-11-21 13:00:00 15.8 4 Noroeste 8 Noroeste 0 893.5 -1.1 27
2017-11-21 12:00:00 13.1 4 Sur 8 Sur 0 894.2 -0.3 32
2017-11-21 11:00:00 8.8 4 Sur 6 Sur 0 894.5 0.3 41
2017-11-21 10:00:00 4.9 0 Calma 6 Sur 0 894.6 0.6 54
2017-11-21 09:00:00 0.7 0 Calma 6 Sudeste 0 894.5 0.5 65
2017-11-21 08:00:00 0.3 4 Sudeste 6 Sudeste 0 894.2 0.3 67
2017-11-21 07:00:00 0.9 3 Sudeste 6 Sudeste 0 894 -0.2 65
2017-11-21 06:00:00 0.2 2 Sudeste 5 Sur 0 894 -0.6 68
2017-11-21 05:00:00 0.3 3 Sudeste 6 Sudeste 0 893.9 -0.6 67
2017-11-21 04:00:00 1.5 3 Este 5 Sudeste 0 894.2 -0.6 63
2017-11-21 03:00:00 1.5 5 Sudeste 6 Sudeste 0 894.6 -0.2 63
2017-11-21 02:00:00 2 0 Calma 6 Sudeste 0 894.5 -0.7 61
2017-11-21 01:00:00 2.6 4 Sudeste 6 Sudeste 0 894.8 -0.5 60
2017-11-21 00:00:00 3.1 3 Este 7 Sudeste 0 894.8 -0.3 57
2017-11-20 23:00:00 3.6 3 Sur 9 Sur 0 895.2 0.8 54
2017-11-20 22:00:00 4.8 2 Sur 8 Sudoeste 0 895.3 1.3 51
2017-11-20 21:00:00 6 2 Este 7 Sudeste 0 895.1 1.2 46
2017-11-20 20:00:00 7.5 3 Este 9 Sudeste 0 894.4 0.6 40
2017-11-20 19:00:00 9.3 5 Sudeste 6 Nordeste 0 894 0.1 40
2017-11-20 18:00:00 13.6 5 Norte 10 Nordeste 0 893.9 -0.3 26
2017-11-20 17:00:00 15.6 7 Norte 17 Norte 0 893.8 -0.8 22
2017-11-20 16:00:00 17 9 Norte 19 Norte 0 893.9 -1.2 21
2017-11-20 15:00:00 17.3 10 Norte 17 Noroeste 0 894.2 -1.5 20
2017-11-20 14:00:00 17.6 7 Noroeste 14 Norte 0 894.6 -1.4 17
2017-11-20 13:00:00 15.8 4 Sudoeste 8 Sudoeste 0 895.1 -0.5 15
2017-11-20 12:00:00 12.4 3 Sur 7 Sur 0 895.7 0.4 24
2017-11-20 11:00:00 9.6 3 Sur 6 Sudeste 0 896 1.1 31
2017-11-20 10:00:00 5.3 2 Sudeste 7 Sur 0 895.6 1.1 40
2017-11-20 09:00:00 0.6 2 Este 6 Sudeste 0 895.3 1 59
2017-11-20 08:00:00 0 4 Sudeste 7 Sudeste 0 894.9 0.7 61
2017-11-20 07:00:00 -0.1 2 Sudeste 5 Nordeste 0 894.5 0.1 62
2017-11-20 06:00:00 -0.1 2 Sudeste 4 Sudeste 0 894.3 -0.2 69
2017-11-20 05:00:00 0.4 2 Este 5 Sudeste 0 894.2 -0.4 73
2017-11-20 04:00:00 0.6 3 Este 5 Sudeste 0 894.4 -0.5 67
2017-11-20 03:00:00 0.4 0 Calma 6 Sur 0 894.5 -0.4 74
2017-11-20 02:00:00 0.9 4 Sudeste 7 Sudeste 0 894.6 -0.4 76
2017-11-20 01:00:00 0.7 2 Sudeste 6 Sur 0 894.9 -0.2 81
2017-11-20 00:00:00 1.9 3 Sur 10 Sur 0 894.9 0.2 74
2017-11-19 23:00:00 2.2 2 Sudeste 8 Sur 0 895 0.4 77
2017-11-19 22:00:00 3.5 4 Sur 5 Sur 0 895.1 0.9 76
2017-11-19 21:00:00 4.7 3 Sudeste 7 Sudeste 0 894.7 1.2 70
2017-11-19 20:00:00 6.8 2 Sudeste 9 Nordeste 0 894.6 1.3 64
2017-11-19 19:00:00 9.1 4 Norte 14 Norte 0 894.2 1.2 55
2017-11-19 18:00:00 11.9 8 Norte 18 Norte 0 893.5 0.5 47
2017-11-19 17:00:00 14.3 11 Norte 19 Noroeste 0 893.3 0.1 33
2017-11-19 16:00:00 15.8 13 Noroeste 20 Norte 0 893 -0.7 27
2017-11-19 15:00:00 15.9 8 Norte 17 Noroeste 0 893 -1.2 26
2017-11-19 14:00:00 16 9 Norte 15 Norte 0 893.2 -0.8 26
2017-11-19 13:00:00 14.9 6 Norte 11 Norte 0 893.7 -0.2 30
2017-11-19 12:00:00 11.9 2 Oeste 6 Sur 0 894.2 0.7 38
2017-11-19 11:00:00 7.7 5 Sur 9 Sur 0 894 1 55
2017-11-19 10:00:00 3.7 4 Sur 6 Sur 0 893.9 1 69
2017-11-19 09:00:00 -0.6 4 Sur 9 Sur 0 893.5 1 85
2017-11-19 08:00:00 -0.6 0 Calma 5 Sur 0 893 0.6 88
2017-11-19 07:00:00 -0.2 4 Sudeste 5 Sur 0 892.9 0.4 87
2017-11-19 06:00:00 0.2 2 Sudeste 7 Sur 0 892.5 0.1 86
2017-11-19 05:00:00 0 2 Este 4 Este 0 892.4 -0.2 87
2017-11-19 04:00:00 0.5 0 Calma 7 Sudoeste 0 892.5 -0.6 85
2017-11-19 03:00:00 1.8 4 Sudoeste 12 Sur 0 892.4 -0.8 78
2017-11-19 02:00:00 1.3 6 Sur 10 Sur 0 892.6 -0.6 83
2017-11-19 01:00:00 1.7 3 Sur 9 Sudeste 0 893.1 0 80
2017-11-19 00:00:00 2.1 0 Calma 6 Sur 0 893.2 0.4 81
2017-11-18 23:00:00 2.7 2 Sur 6 Sur 0 893.2 0.4 79
2017-11-18 22:00:00 3.5 2 Este 5 Sur 0 893.1 0.7 76
2017-11-18 21:00:00 4.5 4 Este 5 Este 0 892.8 0.7 71
2017-11-18 20:00:00 6.1 3 Este 4 Este 0 892.8 0.9 64
2017-11-18 19:00:00 8.3 2 Norte 6 Norte 0 892.4 0.8 56
2017-11-18 18:00:00 11.2 4 Norte 15 Nordeste 0 892.1 0.5 47
2017-11-18 17:00:00 12.9 12 Norte 21 Norte 0 891.9 -0.2 43
2017-11-18 16:00:00 13.9 13 Norte 20 Noroeste 0 891.6 -0.7 37
2017-11-18 15:00:00 14.2 13 Norte 21 Noroeste 0 891.6 -1.1 38
2017-11-18 14:00:00 13.7 13 Norte 20 Norte 0 892.1 -0.7 42
2017-11-18 13:00:00 14.5 8 Norte 13 Norte 0 892.3 -0.3 39
2017-11-18 12:00:00 13.8 3 Noroeste 5 Oeste 0 892.7 0.4 37
2017-11-18 11:00:00 10.3 2 Oeste 3 Oeste 0 892.8 0.7 44
2017-11-18 10:00:00 5.3 3 Sur 5 Sur 0 892.6 0.5 61
2017-11-18 09:00:00 1.3 3 Sur 7 Sur 0 892.3 0.2 79
2017-11-18 08:00:00 0.8 4 Sudeste 6 Sudeste 0 892.1 0 79
2017-11-18 07:00:00 0.7 3 Sudeste 7 Sudeste 0 892.1 -0.2 81
2017-11-18 06:00:00 0.9 3 Sudeste 4 Sudeste 0 892.1 -0.1 80
2017-11-18 05:00:00 1.3 4 Sudeste 5 Sudeste 0 892.1 -0.4 78
2017-11-18 04:00:00 2 3 Sudeste 5 Sur 0 892.3 -0.5 77
2017-11-18 03:00:00 2.1 4 Sudeste 8 Sudeste 0 892.2 -0.7 77
2017-11-18 02:00:00 2.1 2 Sudeste 5 Sur 0 892.5 -0.6 80
2017-11-18 01:00:00 2.8 2 Sudeste 7 Sur 0 892.8 -0.2 75
2017-11-18 00:00:00 2.9 4 Sudeste 7 Sur 0 892.9 0 77
2017-11-17 23:00:00 3.6 3 Este 5 Este 0 893.1 0.4 73
2017-11-17 22:00:00 4.6 2 Sudeste 5 Sudeste 0 893 0.8 68
2017-11-17 21:00:00 5.9 2 Sudeste 6 Nordeste 0 892.9 0.9 64
2017-11-17 20:00:00 7.2 3 Nordeste 6 Norte 0 892.7 0.8 60
2017-11-17 19:00:00 9 4 Nordeste 5 Nordeste 0 892.2 0.4 54
2017-11-17 18:00:00 12.3 3 Noroeste 14 Norte 0 892 0.1 42
2017-11-17 17:00:00 13.5 9 Norte 17 Norte 0 891.9 -0.4 38
2017-11-17 16:00:00 15.1 12 Norte 18 Norte 0 891.8 -1.1 34
2017-11-17 15:00:00 15.8 13 Norte 19 Norte 0 891.9 -1.6 32
2017-11-17 14:00:00 16.3 12 Norte 20 Noroeste 0 892.3 -1.3 30
2017-11-17 13:00:00 16.5 4 Oeste 10 Oeste 0 892.9 -0.5 30
2017-11-17 12:00:00 13.7 2 Oeste 6 Sudoeste 0 893.5 0.3 33
2017-11-17 11:00:00 9.7 3 Sur 8 Sur 0 893.6 0.7 40
2017-11-17 10:00:00 6.3 3 Sudeste 8 Sur 0 893.4 0.6 51
2017-11-17 09:00:00 1.9 3 Este 5 Sur 0 893.2 0.5 70
2017-11-17 08:00:00 1.2 3 Sudeste 5 Sudeste 0 892.9 0.2 73
2017-11-17 07:00:00 1.6 2 Sudeste 6 Sur 0 892.8 -0.1 71
2017-11-17 06:00:00 1.1 2 Sudeste 6 Este 0 892.7 -0.3 74
2017-11-17 05:00:00 1.8 3 Sur 6 Sur 0 892.7 -0.4 70
2017-11-17 04:00:00 2.7 2 Sudeste 5 Sudeste 0 892.9 -0.5 67
2017-11-17 03:00:00 2.9 3 Sudeste 6 Sudeste 0 893 -0.4 67
2017-11-17 02:00:00 2.7 3 Sudeste 6 Sudeste 0 893.1 -0.4 69
2017-11-17 01:00:00 2.4 3 Sudeste 6 Sudeste 0 893.4 0 72
2017-11-17 00:00:00 2.9 3 Este 7 Sur 0 893.4 0.2 69
2017-11-16 23:00:00 4 2 Sur 8 Sur 0 893.5 0.7 64
2017-11-16 22:00:00 4.7 3 Sur 7 Sur 0 893.4 1.1 63
2017-11-16 21:00:00 6.1 0 Calma 5 Sudeste 0 893.2 1.3 58
2017-11-16 20:00:00 8.6 0 Calma 9 Nordeste 0 892.8 1.1 50
2017-11-16 19:00:00 11.1 9 Nordeste 15 Nordeste 0 892.3 0.6 40
2017-11-16 18:00:00 13.2 9 Norte 15 Norte 0 891.9 0.2 34
2017-11-16 17:00:00 15.3 10 Norte 18 Nordeste 0 891.7 -0.2 31
2017-11-16 16:00:00 16.5 11 Norte 17 Norte 0 891.7 -0.5 28
2017-11-16 15:00:00 16.5 11 Norte 19 Norte 0 891.7 -1.2 29
2017-11-16 14:00:00 16.5 13 Norte 18 Norte 0 891.9 -1 29
2017-11-16 13:00:00 15.4 0 Calma 5 Oeste 0 892.2 -0.4 31
2017-11-16 12:00:00 11 2 Oeste 6 Sudoeste 0 892.9 0.9 39
2017-11-16 11:00:00 7 3 Sur 9 Sur 0 892.9 1.3 50
2017-11-16 10:00:00 4.4 2 Sur 6 Sur 0 892.6 1.5 58
2017-11-16 09:00:00 0 0 Calma 3 Sudeste 0 892 1.1 81
2017-11-16 08:00:00 -0.3 2 Sudeste 5 Sudeste 0 891.6 0.7 79
2017-11-16 07:00:00 -0.2 3 Sudeste 7 Sudeste 0 891.1 0.1 80
2017-11-16 06:00:00 -0.9 0 Calma 6 Sur 0 890.9 -0.4 83
2017-11-16 05:00:00 -0.7 3 Sudoeste 5 Sur 0 890.9 -0.5 83
2017-11-16 04:00:00 -0.4 0 Calma 7 Sudeste 0 891 -0.4 81
2017-11-16 03:00:00 0 3 Sudeste 6 Sudeste 0 891.3 -0.2 80
2017-11-16 02:00:00 0.3 0 Calma 3 Sur 0 891.4 -0.2 80
2017-11-16 01:00:00 1.2 2 Este 3 Este 0 891.4 0 75
2017-11-16 00:00:00 1.7 0 Calma 4 Sudeste 0 891.5 0.2 74
2017-11-15 23:00:00 2.9 3 Este 8 Sudeste 0 891.6 0.4 67
2017-11-15 22:00:00 3.5 0 Calma 4 Este 0 891.4 0.5 66
2017-11-15 21:00:00 4.9 2 Este 4 Nordeste 0 891.3 0.7 60
2017-11-15 20:00:00 7.2 3 Norte 19 Norte 0 891.2 0.8 49
2017-11-15 19:00:00 9.1 8 Norte 18 Norte 0 890.9 0.3 41
2017-11-15 18:00:00 11 9 Norte 19 Norte 0 890.6 -0.1 37
2017-11-15 17:00:00 12.8 14 Norte 24 Noroeste 0 890.4 -0.6 31
2017-11-15 16:00:00 13.7 16 Noroeste 26 Noroeste 0 890.6 -0.7 30
2017-11-15 15:00:00 14.4 18 Norte 27 Noroeste 0 890.7 -0.9 30
2017-11-15 14:00:00 14.3 19 Norte 26 Noroeste 0 891 -0.6 30
2017-11-15 13:00:00 13 13 Norte 18 Norte 0 891.3 -0.3 36
2017-11-15 12:00:00 12.3 6 Norte 13 Nordeste 0 891.6 0.3 38
2017-11-15 11:00:00 9.6 5 Oeste 7 Noroeste 0 891.6 0.6 50
2017-11-15 10:00:00 5 0 Calma 8 Sur 0 891.6 1 63
2017-11-15 09:00:00 0 2 Sur 6 Sur 0 891.3 0.8 82
2017-11-15 08:00:00 -0.5 3 Sur 5 Sur 0 891 0.7 81
2017-11-15 07:00:00 -0.3 3 Sudeste 8 Sur 0 890.6 0 80
2017-11-15 06:00:00 -0.3 2 Sur 12 Sudoeste 0 890.5 -0.1 79
2017-11-15 05:00:00 -0.1 5 Sur 12 Sudoeste 0 890.3 -0.6 78
2017-11-15 04:00:00 0.2 8 Sudoeste 15 Sur 0 890.6 -0.6 77
2017-11-15 03:00:00 0.1 6 Sudoeste 11 Sudoeste 0 890.6 -0.8 78
2017-11-15 02:00:00 0.1 2 Oeste 9 Sudeste 0 890.9 -0.7 81
2017-11-15 01:00:00 1.1 2 Sudeste 10 Sur 0 891.2 -0.4 76
2017-11-15 00:00:00 1.1 7 Sudeste 10 Sudeste 0 891.4 -0.2 76
2017-11-14 23:00:00 1.3 3 Sur 13 Sudoeste 0 891.6 -0.1 75
2017-11-14 22:00:00 2.4 5 Sudoeste 11 Sudoeste 0 891.6 0.1 69
2017-11-14 21:00:00 2.6 2 Sudoeste 4 Sudoeste 0 891.6 0.3 72
2017-11-14 20:00:00 3.7 2 Este 4 Norte 0 891.7 0.6 67
2017-11-14 19:00:00 5.9 4 Nordeste 11 Norte 0 891.5 0.5 55
2017-11-14 18:00:00 7 8 Norte 17 Norte 0 891.3 0.1 52
2017-11-14 17:00:00 8.1 11 Noroeste 22 Noroeste 0 891.1 -0.6 49
2017-11-14 16:00:00 8.5 10 Norte 18 Norte 0 891 -1.3 52
2017-11-14 15:00:00 7.8 9 Nordeste 20 Noroeste 0 891.2 -1.8 53
2017-11-14 14:00:00 7.3 13 Noroeste 19 Noroeste 0 891.7 -1.3 54
2017-11-14 13:00:00 6.5 11 Noroeste 16 Norte 0 892.3 -0.8 60
2017-11-14 12:00:00 4.6 9 Noroeste 14 Noroeste 0 893 -0.1 68
2017-11-14 11:00:00 2 7 Noroeste 12 Oeste 0 893 0.6 80
2017-11-14 10:00:00 0.5 5 Oeste 13 Norte 0 893.1 0.5 87
2017-11-14 09:00:00 0.1 7 Norte 12 Norte 0 893.1 0.4 90
2017-11-14 08:00:00 0.1 5 Nordeste 11 Nordeste 0 892.4 -0.7 90
2017-11-14 07:00:00 0.1 7 Norte 14 Norte 0 892.6 -0.9 90
2017-11-14 06:00:00 0.1 5 Noroeste 11 Noroeste 0 892.7 -1.1 90
2017-11-14 05:00:00 -0.1 4 Noroeste 12 Noroeste 0 893.1 -0.7 90
2017-11-14 04:00:00 -0.1 6 Oeste 17 Noroeste 0 893.5 -0.7 91
2017-11-14 03:00:00 -0.4 7 Noroeste 13 Oeste 0 893.8 -0.3 90
2017-11-14 02:00:00 -0.6 9 Noroeste 14 Noroeste 0 893.8 -0.3 90
2017-11-14 01:00:00 -0.2 5 Oeste 13 Oeste 0 894.2 0.2 88
2017-11-14 00:00:00 0.5 5 Noroeste 17 Noroeste 0 894.1 0.3 85
2017-11-13 23:00:00 0.9 8 Norte 22 Norte 0 894.1 0.4 82
2017-11-13 22:00:00 1.4 9 Norte 22 Norte 0 894 0.5 82
2017-11-13 21:00:00 2.1 11 Norte 18 Nordeste 0 893.8 1.2 78
2017-11-13 20:00:00 3 8 Norte 22 Nordeste 0 893.7 0.9 70
2017-11-13 19:00:00 4.1 9 Nordeste 31 Nordeste 0 893.5 0.8 66
2017-11-13 18:00:00 5.8 17 Norte 35 Norte 0 892.6 -0.2 57
2017-11-13 17:00:00 7.1 21 Norte 37 Norte 0 892.8 -0.4 50
2017-11-13 16:00:00 8.2 21 Norte 41 Noroeste 0 892.7 -0.7 50
2017-11-13 15:00:00 7.9 19 Norte 34 Norte 0 892.8 -0.9 53
2017-11-13 14:00:00 7.8 16 Norte 38 Norte 0 893.2 -0.2 58
2017-11-13 13:00:00 6.8 20 Norte 31 Norte 0 893.4 0.2 67
2017-11-13 12:00:00 7 22 Norte 36 Norte 0 893.7 0.9 67
2017-11-13 11:00:00 5.8 15 Norte 28 Norte 0 893.4 1.3 80
2017-11-13 10:00:00 4.9 15 Norte 27 Norte 0 893.2 1.2 87
2017-11-13 09:00:00 5 14 Norte 26 Norte 0 892.8 0.7 94
2017-11-13 08:00:00 5.1 13 Noroeste 22 Norte 0 892.1 -0.2 97
2017-11-13 07:00:00 4.1 7 Noroeste 17 Noroeste 0 892 -0.5 100
2017-11-13 06:00:00 2.1 4 Noroeste 8 Noroeste 0 892.1 -0.7 98
2017-11-13 05:00:00 2.8 0 Calma 7 Sudoeste 0 892.3 -0.7 97
2017-11-13 04:00:00 3.9 5 Noroeste 12 Noroeste 0 892.5 -0.9 93
2017-11-13 03:00:00 5 6 Noroeste 14 Noroeste 0 892.8 -0.4 94
2017-11-13 02:00:00 5.9 10 Noroeste 21 Norte 0 893 -0.3 90
2017-11-13 01:00:00 5.7 10 Noroeste 16 Noroeste 0 893.4 0.1 87
2017-11-13 00:00:00 4.1 7 Noroeste 9 Noroeste 0 893.2 -0.1 89
2017-11-12 23:00:00 4.9 4 Noroeste 10 Norte 0 893.3 -0.1 80
2017-11-12 22:00:00 6.3 6 Norte 12 Norte 0 893.3 0.1 75
2017-11-12 21:00:00 7.1 7 Noroeste 14 Noroeste 0 893.3 0.3 71
2017-11-12 20:00:00 7.7 6 Noroeste 13 Norte 0 893.4 0.4 65
2017-11-12 19:00:00 9.7 9 Norte 15 Norte 0 893.2 0.1 57
2017-11-12 18:00:00 11.9 12 Norte 23 Noroeste 0 893 -0.2 49
2017-11-12 17:00:00 13.6 17 Noroeste 31 Noroeste 0 893 -0.7 41
2017-11-12 16:00:00 15 19 Noroeste 29 Noroeste 0 893.1 -1 32
2017-11-12 15:00:00 15.4 17 Noroeste 30 Noroeste 0 893.2 -1.7 30
2017-11-12 14:00:00 14.8 15 Noroeste 25 Norte 0 893.7 -1.7 32
2017-11-12 13:00:00 14.2 14 Noroeste 19 Noroeste 0 894.1 -1.3 35
2017-11-12 12:00:00 12.3 5 Noroeste 16 Norte 0 894.9 -0.4 48
2017-11-12 11:00:00 10.1 9 Norte 13 Norte 0 895.4 0.3 52
2017-11-12 10:00:00 5.9 0 Calma 7 Sur 0 895.4 0.2 53
2017-11-12 09:00:00 0.6 3 Sur 5 Sur 0 895.3 -0.1 75
2017-11-12 08:00:00 0.2 2 Sudeste 6 Sudeste 0 895.1 -0.5 75
2017-11-12 07:00:00 0 2 Sur 5 Sudeste 0 895.2 -0.8 76
2017-11-12 06:00:00 0.1 3 Sudeste 6 Sur 0 895.4 -1 77
2017-11-12 05:00:00 0.5 2 Sudeste 8 Sur 0 895.6 -1.1 75
2017-11-12 04:00:00 0.6 3 Sur 4 Sudeste 0 896 -1 81
2017-11-12 03:00:00 1 3 Este 5 Sur 0 896.4 -0.9 83
2017-11-12 02:00:00 1.3 0 Calma 5 Sur 0 896.7 -1 87
2017-11-12 01:00:00 2 0 Calma 6 Sudeste 0 897 -0.8 88
2017-11-12 00:00:00 2.9 3 Sudeste 6 Este 0 897.3 -0.6 82
2017-11-11 23:00:00 3.6 3 Este 10 Sur 0 897.7 -0.1 84
2017-11-11 22:00:00 4.2 5 Sur 8 Sudoeste 0 897.8 -0.2 83
2017-11-11 21:00:00 5.3 0 Calma 10 Sur 0 897.9 0 80
2017-11-11 20:00:00 6.2 2 Norte 5 Oeste 0 897.8 -0.3 78
2017-11-11 19:00:00 8.1 0 Calma 8 Norte 0 898 -0.1 70
2017-11-11 18:00:00 10.9 6 Norte 17 Norte 0 897.9 -0.4 57
2017-11-11 17:00:00 12.3 11 Norte 22 Norte 0 898.1 -0.7 49
2017-11-11 16:00:00 13.1 12 Noroeste 22 Noroeste 0 898.1 -1.1 47
2017-11-11 15:00:00 13.4 11 Noroeste 20 Norte 0 898.3 -1.6 47
2017-11-11 14:00:00 12.9 10 Noroeste 18 Noroeste 0 898.8 -1.5 51
2017-11-11 13:00:00 12.1 9 Noroeste 17 Noroeste 0 899.2 -1 56
2017-11-11 12:00:00 10.7 9 Noroeste 15 Norte 0 899.9 -0.2 64
2017-11-11 11:00:00 9 8 Noroeste 13 Noroeste 0 900.3 0.3 71
2017-11-11 10:00:00 6.4 6 Sur 10 Sur 0 900.2 0.2 81
2017-11-11 09:00:00 3.2 3 Sur 7 Sudoeste 0 900.1 0.1 92
2017-11-11 08:00:00 4.3 4 Oeste 6 Oeste 0 900 -0.1 93
2017-11-11 07:00:00 4.9 3 Sudoeste 8 Sudoeste 0 900 -0.3 91
2017-11-11 06:00:00 4.9 3 Sudoeste 9 Sudoeste 0 900 -0.5 89
2017-11-11 05:00:00 5.9 5 Oeste 9 Noroeste 0 900.1 -0.6 92
2017-11-11 04:00:00 5.6 4 Noroeste 9 Oeste 0 900.3 -0.6 94
2017-11-11 03:00:00 4.4 4 Noroeste 8 Oeste 0 900.5 -0.4 98
2017-11-11 02:00:00 3.3 4 Noroeste 5 Oeste 0 900.7 -0.4 95
2017-11-11 01:00:00 4.9 3 Oeste 10 Norte 0 900.9 -0.2 89
2017-11-11 00:00:00 6 5 Noroeste 10 Norte 0 900.9 0.1 90
2017-11-10 23:00:00 4.8 2 Norte 5 Oeste 0 901.1 0.5 91
2017-11-10 22:00:00 5.2 4 Nordeste 11 Oeste 0 901.1 0.7 87
2017-11-10 21:00:00 6.5 3 Oeste 10 Noroeste 0 900.8 0.2 84
2017-11-10 20:00:00 7.6 9 Norte 19 Nordeste 0 900.6 0.3 80
2017-11-10 19:00:00 8.6 11 Norte 22 Nordeste 0 900.4 0.2 75
2017-11-10 18:00:00 10.5 14 Nordeste 25 Norte 0 900.6 0.3 67
2017-11-10 17:00:00 11 14 Norte 23 Norte 0 900.3 -0.1 63
2017-11-10 16:00:00 11.6 16 Norte 34 Norte 0 900.2 -0.4 61
2017-11-10 15:00:00 11.1 13 Norte 24 Noroeste 0 900.3 -0.7 63
2017-11-10 14:00:00 9.8 14 Norte 24 Norte 0 900.4 -0.9 66
2017-11-10 13:00:00 9.6 14 Norte 25 Noroeste 0 900.6 0.2 68
2017-11-10 12:00:00 8.2 15 Noroeste 24 Oeste 0 901 0.9 71
2017-11-10 11:00:00 6.3 12 Noroeste 22 Noroeste 0 901.3 1.8 72
2017-11-10 10:00:00 5.2 10 Noroeste 16 Oeste 0 900.4 1.3 73
2017-11-10 09:00:00 3.3 4 Oeste 10 Noroeste 0 900.1 0.7 78
2017-11-10 08:00:00 3.8 4 Oeste 9 Noroeste 0 899.5 0 76
2017-11-10 07:00:00 4.3 5 Noroeste 10 Noroeste 0 899.1 -0.4 74
2017-11-10 06:00:00 3.9 4 Noroeste 8 Noroeste 0 899.4 0.1 82
2017-11-10 05:00:00 3.6 5 Noroeste 10 Oeste 0 899.5 -0.2 84
2017-11-10 04:00:00 3.2 5 Oeste 13 Noroeste 0 899.5 -0.2 81
2017-11-10 03:00:00 3.2 6 Oeste 11 Noroeste 0 899.3 -0.2 80
2017-11-10 02:00:00 2.9 6 Noroeste 16 Noroeste 0 899.7 0.4 81
2017-11-10 01:00:00 2.7 8 Norte 14 Nordeste 0 899.7 0.6 79
2017-11-10 00:00:00 0.8 0 Calma 11 Noroeste 0 899.5 0.7 82
2017-11-09 23:00:00 1.4 5 Noroeste 11 Noroeste 0 899.3 0.9 80
2017-11-09 22:00:00 2.6 7 Norte 12 Norte 0 899.1 0.7 75
2017-11-09 21:00:00 3.3 5 Norte 12 Norte 0 898.8 1 71
2017-11-09 20:00:00 4.7 8 Noroeste 15 Norte 0 898.4 1 66
2017-11-09 19:00:00 5.1 12 Norte 26 Norte 0 898.4 0.8 63
2017-11-09 18:00:00 5.2 15 Norte 30 Nordeste 0 897.8 0.6 60
2017-11-09 17:00:00 6.2 12 Norte 31 Norte 0 897.4 -0.3 54
2017-11-09 16:00:00 5.8 19 Nordeste 35 Norte 0 897.6 -0.2 55
2017-11-09 15:00:00 6.1 16 Norte 33 Norte 0 897.2 -1.2 58
2017-11-09 14:00:00 5.6 18 Nordeste 32 Nordeste 0 897.7 -0.7 65
2017-11-09 13:00:00 4.7 18 Norte 29 Norte 0 897.8 -0.2 71
2017-11-09 12:00:00 3.8 12 Norte 27 Norte 0 898.4 0.4 76
2017-11-09 11:00:00 3.8 17 Norte 27 Noroeste 0 898.4 1.2 75
2017-11-09 10:00:00 1.9 9 Norte 15 Norte 0 898 1.1 88
2017-11-09 09:00:00 0.8 6 Norte 19 Norte 0 898 1.7 94
2017-11-09 08:00:00 0.2 10 Norte 16 Norte 0 897.2 1 95
2017-11-09 07:00:00 -0.5 6 Noroeste 10 Noroeste 0 896.9 0.5 96
2017-11-09 06:00:00 -0.3 6 Noroeste 10 Noroeste 0 896.3 -0.1 96
2017-11-09 05:00:00 -0.6 6 Noroeste 10 Noroeste 0 896.2 -0.1 97
2017-11-09 04:00:00 -0.3 6 Noroeste 12 Noroeste 0 896.4 -0.3 94
2017-11-09 03:00:00 0.2 6 Oeste 10 Noroeste 0 896.4 0.3 94
2017-11-09 02:00:00 0.3 8 Noroeste 12 Noroeste 0 896.3 0 93
2017-11-09 01:00:00 0.8 7 Norte 23 Norte 0 896.7 0.7 89
2017-11-09 00:00:00 1.6 13 Norte 22 Norte 0 896.1 0.4 84
2017-11-08 23:00:00 2.6 14 Norte 23 Nordeste 0 896.3 1.4 78
2017-11-08 22:00:00 3.5 9 Nordeste 21 Nordeste 0 896 1.5 79
2017-11-08 21:00:00 3.7 10 Nordeste 34 Norte 0 895.7 1.6 82
2017-11-08 20:00:00 6.3 13 Noroeste 28 Norte 0 894.9 0.7 62
2017-11-08 19:00:00 6.3 15 Norte 30 Noroeste 0 894.5 0.6 57
2017-11-08 18:00:00 7 15 Noroeste 30 Noroeste 0 894.1 -0.1 56
2017-11-08 17:00:00 8 18 Noroeste 33 Noroeste 0 894.2 -0.2 53
2017-11-08 16:00:00 8.3 18 Norte 36 Noroeste 0 893.9 -1.3 49
2017-11-08 15:00:00 8.3 20 Noroeste 35 Noroeste 0 894.2 -1.5 51
2017-11-08 14:00:00 8.2 17 Noroeste 27 Noroeste 0 894.4 -1.2 56
2017-11-08 13:00:00 6.8 15 Noroeste 27 Norte 0 895.2 -0.4 64
2017-11-08 12:00:00 6.4 13 Noroeste 20 Noroeste 0 895.7 0.5 70
2017-11-08 11:00:00 4.9 7 Norte 17 Noroeste 0 895.6 1.1 82
2017-11-08 10:00:00 4.5 11 Norte 20 Norte 0 895.6 1.4 85
2017-11-08 09:00:00 4.2 9 Norte 16 Norte 0 895.2 1.4 89
2017-11-08 08:00:00 4.1 9 Norte 19 Norte 0 894.5 0.9 91
2017-11-08 07:00:00 4.9 11 Norte 21 Norte 0 894.2 0.7 91
2017-11-08 06:00:00 5.3 10 Noroeste 18 Noroeste 0 893.8 0.3 91
2017-11-08 05:00:00 5.5 12 Noroeste 22 Noroeste 0 893.6 0 90
2017-11-08 04:00:00 6 12 Noroeste 21 Noroeste 0 893.5 0.1 87
2017-11-08 03:00:00 6.1 14 Noroeste 24 Noroeste 0 893.5 0.3 86
2017-11-08 02:00:00 6.8 15 Noroeste 27 Noroeste 0 893.6 0.6 82
2017-11-08 01:00:00 7.2 13 Noroeste 29 Noroeste 0 893.4 0.7 80
2017-11-08 00:00:00 7.4 9 Noroeste 23 Noroeste 0 893.2 0.4 78
2017-11-07 23:00:00 7.4 8 Oeste 23 Sudoeste 0 893 0.6 73
2017-11-07 22:00:00 6.9 10 Oeste 20 Oeste 0 892.7 0.6 70
2017-11-07 21:00:00 7 3 Oeste 15 Noroeste 0 892.8 1 66
2017-11-07 20:00:00 8 11 Noroeste 19 Noroeste 0 892.4 1 63
2017-11-07 19:00:00 8.8 11 Norte 17 Noroeste 0 892.1 0.8 61
2017-11-07 18:00:00 11 12 Norte 32 Norte 0 891.8 0.4 53
2017-11-07 17:00:00 13 19 Noroeste 30 Noroeste 0 891.4 -0.4 40
2017-11-07 16:00:00 13.8 12 Norte 24 Norte 0 891.3 -1.1 42
2017-11-07 15:00:00 13.1 12 Norte 23 Noroeste 0 891.4 -1.5 46
2017-11-07 14:00:00 12 12 Noroeste 24 Noroeste 0 891.8 -1.2 50
2017-11-07 13:00:00 10.5 12 Norte 21 Noroeste 0 892.4 -0.6 56
2017-11-07 12:00:00 9.3 8 Norte 17 Noroeste 0 892.9 0 63
2017-11-07 11:00:00 6.7 5 Sudoeste 9 Oeste 0 893 0.5 69
2017-11-07 10:00:00 3.4 4 Sudoeste 9 Sudoeste 0 893 0.8 78
2017-11-07 09:00:00 -0.2 3 Sur 7 Sur 0 892.9 0.5 91
2017-11-07 08:00:00 -0.7 4 Sudoeste 9 Sudoeste 0 892.5 0.1 93
2017-11-07 07:00:00 -0.6 2 Sur 8 Sudoeste 0 892.2 -0.5 92
2017-11-07 06:00:00 -0.3 4 Sur 7 Nordeste 0 892.4 -0.7 90
2017-11-07 05:00:00 -0.3 3 Oeste 9 Sudoeste 0 892.4 -0.9 92
2017-11-07 04:00:00 -0.1 2 Oeste 5 Sudoeste 0 892.7 -0.7 92
2017-11-07 03:00:00 0.3 2 Noroeste 7 Sudoeste 0 893.1 -0.2 92
2017-11-07 02:00:00 1.2 4 Noroeste 8 Noroeste 0 893.3 -0.4 89
2017-11-07 01:00:00 2 5 Noroeste 13 Noroeste 0 893.4 -0.3 87
2017-11-07 00:00:00 2.7 9 Norte 14 Norte 0 893.3 -0.5 85
2017-11-06 23:00:00 3.2 8 Noroeste 17 Norte 0 893.7 -0.2 83
2017-11-06 22:00:00 3.5 6 Noroeste 11 Noroeste 0 893.7 -0.2 83
2017-11-06 21:00:00 4.3 5 Noroeste 13 Norte 0 893.8 0.1 79
2017-11-06 20:00:00 5.1 8 Noroeste 17 Norte 0 893.9 0.2 75
2017-11-06 19:00:00 6 7 Norte 17 Norte 0 893.9 0 70
2017-11-06 18:00:00 7.1 9 Norte 28 Norte 0 893.7 -0.5 64
2017-11-06 17:00:00 8.2 16 Norte 33 Norte 0 893.7 -1.2 60
2017-11-06 16:00:00 8.4 19 Norte 32 Norte 0 893.9 -1.5 59
2017-11-06 15:00:00 8.2 17 Norte 34 Norte 0 894.2 -2.1 64
2017-11-06 14:00:00 8.3 15 Norte 34 Nordeste 0 894.9 -1.6 65
2017-11-06 13:00:00 7.8 17 Nordeste 26 Norte 0 895.4 -1 67
2017-11-06 12:00:00 6.8 11 Norte 23 Norte 0 896.3 -0.1 75
2017-11-06 11:00:00 5.8 12 Norte 23 Norte 0 896.5 0.5 78
2017-11-06 10:00:00 4.6 12 Norte 18 Norte 0 896.4 0.7 85
2017-11-06 09:00:00 2.2 9 Norte 13 Norte 0 896.4 0.7 94
2017-11-06 08:00:00 1.4 7 Noroeste 14 Noroeste 0 896 0.3 96
2017-11-06 07:00:00 1.3 5 Noroeste 10 Norte 0 895.7 -0.4 93
2017-11-06 06:00:00 2.1 7 Norte 17 Norte 0 895.7 -0.8 91
2017-11-06 05:00:00 1.8 10 Norte 13 Norte 0 895.7 -1 93
2017-11-06 04:00:00 0.9 3 Noroeste 6 Oeste 0 896.1 -0.6 95
2017-11-06 03:00:00 1.4 2 Oeste 9 Sudoeste 0 896.5 -0.1 95
2017-11-06 02:00:00 1.6 3 Oeste 5 Oeste 0 896.7 0.3 94
2017-11-06 01:00:00 2.6 2 Noroeste 9 Noroeste 0 896.7 0.5 90
2017-11-06 00:00:00 3.4 5 Noroeste 13 Noroeste 0 896.6 0.8 90
2017-11-05 23:00:00 4.2 9 Noroeste 15 Norte 0 896.4 0.6 86
2017-11-05 22:00:00 4.9 10 Noroeste 18 Noroeste 0 896.2 1 84
2017-11-05 21:00:00 5.8 10 Noroeste 21 Noroeste 0 895.8 0.9 80
2017-11-05 20:00:00 5.9 10 Noroeste 16 Noroeste 0 895.8 1.1 80
2017-11-05 19:00:00 7.1 10 Noroeste 21 Noroeste 0 895.2 0.6 73
2017-11-05 18:00:00 8.3 15 Noroeste 29 Noroeste 0 894.9 0.4 66
2017-11-05 17:00:00 9.5 16 Noroeste 29 Noroeste 0 894.7 -0.1 61
2017-11-05 16:00:00 9.3 16 Noroeste 34 Norte 0 894.6 -0.5 64
2017-11-05 15:00:00 9.4 16 Noroeste 27 Noroeste 0 894.5 -0.6 64
2017-11-05 14:00:00 8.1 12 Norte 21 Norte 0 894.8 -0.1 78
2017-11-05 13:00:00 7.4 10 Norte 22 Norte 0 895.1 0.4 87
2017-11-05 12:00:00 6.8 10 Norte 19 Nordeste 0.8 895.1 1.3 92
2017-11-05 11:00:00 6.4 10 Norte 20 Norte 0.6 894.9 2 97
2017-11-05 10:00:00 6.2 13 Norte 21 Noroeste 0 894.7 2.4 98
2017-11-05 09:00:00 6.1 15 Noroeste 25 Noroeste 0 893.8 1.6 98
2017-11-05 08:00:00 6.2 15 Noroeste 28 Noroeste 0 892.9 1.2 97
2017-11-05 07:00:00 6.5 14 Noroeste 22 Noroeste 0 892.3 0.9 96
2017-11-05 06:00:00 6.9 11 Noroeste 23 Noroeste 0 892.2 1.2 97
2017-11-05 05:00:00 7.1 11 Noroeste 24 Noroeste 0 891.7 1 97
2017-11-05 04:00:00 7.6 15 Noroeste 25 Noroeste 0 891.4 1.3 97
2017-11-05 03:00:00 8 18 Noroeste 28 Noroeste 0 891 1.3 97
2017-11-05 02:00:00 8.5 17 Noroeste 29 Noroeste 0.6 890.7 1.5 97
2017-11-05 01:00:00 8.9 16 Noroeste 23 Noroeste 0 890.1 1.5 98
2017-11-05 00:00:00 8.9 13 Noroeste 26 Norte 0.6 889.7 1.9 99
2017-11-04 23:00:00 9 14 Noroeste 22 Norte 0.2 889.2 1.8 97
2017-11-04 22:00:00 8.5 12 Noroeste 39 Noroeste 0.8 888.6 2.1 95
2017-11-04 21:00:00 9.8 18 Noroeste 27 Noroeste 0 887.8 2.2 92
2017-11-04 20:00:00 10.1 14 Noroeste 24 Noroeste 0 887.4 2.4 93
2017-11-04 19:00:00 10.6 10 Norte 17 Norte 0 886.5 2 90
2017-11-04 18:00:00 10.9 11 Noroeste 22 Norte 0 885.6 1.4 83
2017-11-04 17:00:00 11.3 6 Noroeste 9 Noroeste 0 885 1 85
2017-11-04 16:00:00 10.9 3 Oeste 6 Oeste 0 884.5 0.4 81
2017-11-04 15:00:00 10.1 3 Sudeste 27 Noroeste 5.6 884.2 -0.2 82
2017-11-04 14:00:00 12.4 5 Sudeste 20 Sudeste 0 884 -0.4 70
2017-11-04 13:00:00 11.9 12 Sudeste 19 Sudeste 0 884.1 0.1 77
2017-11-04 12:00:00 12.4 11 Sudeste 21 Sudeste 0 884.4 0.7 73
2017-11-04 11:00:00 10.3 9 Sudeste 21 Sudeste 0 884.4 1.3 82
2017-11-04 10:00:00 9.8 12 Sudeste 22 Sudeste 0 884 1.1 81
2017-11-04 09:00:00 8.1 8 Sudeste 14 Sur 0 883.7 0.7 89
2017-11-04 08:00:00 7.6 5 Sur 14 Sudeste 0 883.1 0.1 90
2017-11-04 07:00:00 7.5 4 Sudeste 10 Sudeste 0.6 882.9 0.3 92
2017-11-04 06:00:00 7.7 6 Sudeste 21 Sudoeste 5.4 883 -0.1 92
2017-11-04 05:00:00 8.7 9 Sur 17 Sudoeste 1.6 883 -0.6 92
2017-11-04 04:00:00 8.9 8 Sur 19 Sur 0 882.6 -1.3 87
2017-11-04 03:00:00 8.8 6 Sudeste 22 Sudeste 0 883.1 -1.3 87
2017-11-04 02:00:00 8.6 8 Sur 15 Sur 0 883.6 -0.8 88
2017-11-04 01:00:00 8.6 6 Sur 33 Sur 1.8 883.9 -0.9 90
2017-11-04 00:00:00 10.3 9 Sudeste 22 Sur 0 884.4 -0.4 84
2017-11-03 23:00:00 10.3 8 Sudeste 27 Sudeste 0 884.4 -0.7 80
2017-11-03 22:00:00 10.3 6 Sudeste 19 Sudeste 0 884.8 -0.4 77
2017-11-03 21:00:00 10.3 6 Sudeste 15 Sudeste 0 884.8 0 76
2017-11-03 20:00:00 10.2 9 Sudeste 18 Sudeste 0 885.1 0.2 75
2017-11-03 19:00:00 11 7 Sudeste 19 Sur 0 885.2 0.2 72
2017-11-03 18:00:00 12.6 10 Sudeste 22 Sudeste 0 884.8 -0.4 64
2017-11-03 17:00:00 14.6 11 Sur 27 Sur 0 884.9 -0.8 54
2017-11-03 16:00:00 15.9 15 Sur 31 Sur 0 885 -1.3 46
2017-11-03 15:00:00 15.8 15 Sur 33 Sudoeste 0 885.2 -1.5 47
2017-11-03 14:00:00 15.5 14 Sur 32 Sur 0 885.7 -1 51
2017-11-03 13:00:00 15.2 11 Sur 30 Sur 0 886.3 -0.4 56
2017-11-03 12:00:00 14.7 14 Sur 27 Sur 0 886.7 0.3 59
2017-11-03 11:00:00 13.7 13 Sur 24 Sur 0 886.7 0.9 66
2017-11-03 10:00:00 11.8 7 Sudoeste 13 Sudoeste 0 886.7 0.9 76
2017-11-03 09:00:00 8.8 5 Sur 17 Sur 0 886.4 0.4 90
2017-11-03 08:00:00 8.8 8 Sudeste 19 Sudeste 0.2 885.8 -0.3 91
2017-11-03 07:00:00 8.8 2 Sudeste 8 Este 0 885.8 0.1 95
2017-11-03 06:00:00 8.7 5 Norte 17 Sudeste 0 886 0.2 96
2017-11-03 05:00:00 8.9 5 Sudoeste 38 Noroeste 5.8 886.1 -0.2 92
2017-11-03 04:00:00 10.2 10 Sudeste 23 Sur 0.8 885.7 -1.2 94
2017-11-03 03:00:00 11.2 10 Sudeste 24 Sudeste 0 885.8 -2.1 82
2017-11-03 02:00:00 11.6 16 Sudeste 27 Sudeste 0 886.3 -2.1 77
2017-11-03 01:00:00 11.9 12 Sudeste 23 Sudeste 0 886.9 -1.5 75
2017-11-03 00:00:00 12.2 10 Sudeste 22 Sudeste 0 887.9 -0.6 74
2017-11-02 23:00:00 12.3 13 Sudeste 30 Sur 0 888.4 -0.3 73
2017-11-02 22:00:00 12.3 15 Sudeste 32 Sudeste 0 888.4 -0.2 73
2017-11-02 21:00:00 12.1 22 Sudeste 35 Sur 0 888.5 -0.1 74
2017-11-02 20:00:00 11.5 12 Sudeste 23 Sudeste 0 888.7 0.1 75
2017-11-02 19:00:00 12 10 Sudeste 20 Sudeste 0 888.6 -0.1 71
2017-11-02 18:00:00 13.3 11 Sur 28 Sur 0 888.6 -0.4 63
2017-11-02 17:00:00 14.3 10 Sur 37 Sur 0 888.6 -0.9 58
2017-11-02 16:00:00 14.5 10 Sudeste 27 Sudeste 0 888.7 -1.3 61
2017-11-02 15:00:00 13.8 13 Sudeste 24 Sudeste 0 889 -1.5 68
2017-11-02 14:00:00 13.5 14 Sudeste 26 Sur 0 889.5 -1 70
2017-11-02 13:00:00 12.3 14 Sudeste 27 Sudeste 0 890 -0.6 76
2017-11-02 12:00:00 11.6 17 Sudeste 28 Sudeste 0 890.5 0.1 80
2017-11-02 11:00:00 11.3 13 Sur 30 Sur 0 890.5 0.4 82
2017-11-02 10:00:00 10.8 9 Sudeste 24 Sudeste 0 890.6 0.5 85
2017-11-02 09:00:00 10.3 15 Sudeste 24 Sudeste 0 890.4 0.3 88
2017-11-02 08:00:00 10.2 13 Sudeste 24 Sudeste 0 890.1 0.2 87
2017-11-02 07:00:00 10.9 8 Sudeste 18 Sudeste 0 890.1 -0.1 81
2017-11-02 06:00:00 10.5 9 Este 21 Sudeste 0 890.1 -0.3 82
2017-11-02 05:00:00 10.4 15 Sudeste 25 Sudeste 0 889.9 -0.8 82
2017-11-02 04:00:00 11 9 Sudeste 19 Sudeste 0 890.2 -0.8 78
2017-11-02 03:00:00 11.4 11 Sudeste 22 Sudeste 0 890.4 -0.8 75
2017-11-02 02:00:00 11 10 Sudeste 18 Sudeste 0 890.7 -0.6 76
2017-11-02 01:00:00 11.1 5 Este 19 Sudeste 0 891 -0.6 76
2017-11-02 00:00:00 11.5 6 Sudeste 20 Sudeste 0 891.2 -0.3 76
2017-11-01 23:00:00 10.2 8 Sudeste 12 Sudeste 0 891.3 -0.2 82
2017-11-01 22:00:00 11 5 Sudeste 15 Sudeste 0 891.6 0.2 77
2017-11-01 21:00:00 11.7 8 Sudeste 16 Sur 0 891.5 0.5 75
2017-11-01 20:00:00 12 7 Sudeste 22 Sudeste 0 891.5 0.5 73
2017-11-01 19:00:00 12.8 9 Sudeste 21 Sudeste 0 891.4 0.3 69
2017-11-01 18:00:00 13.8 10 Sudeste 26 Sudeste 0 891 -0.1 64
2017-11-01 17:00:00 15.6 10 Sudeste 26 Sudoeste 0 891 -0.7 58
2017-11-01 16:00:00 16 11 Sur 31 Sur 0 891.1 -1.4 57
2017-11-01 15:00:00 15.6 19 Sur 32 Sur 0 891.1 -2.1 57
2017-11-01 14:00:00 15.9 15 Sudeste 30 Sudeste 0 891.7 -1.6 57
2017-11-01 13:00:00 14.5 15 Sudeste 33 Sudeste 0 892.5 -1 64
2017-11-01 12:00:00 12.4 20 Sudeste 35 Sudeste 0 893.2 -0.1 74
2017-11-01 11:00:00 11 19 Sudeste 32 Sudeste 0 893.3 0.5 80
2017-11-01 10:00:00 10.3 16 Sudeste 28 Sudeste 0 893.5 1.1 86
2017-11-01 09:00:00 8.6 9 Sur 24 Sur 0 893.3 1.1 95
2017-11-01 08:00:00 7.9 8 Sur 19 Sur 0 892.8 0.5 96
2017-11-01 07:00:00 7.8 7 Sur 17 Sur 0 892.4 -0.2 93
2017-11-01 06:00:00 7.8 8 Sudeste 14 Sudeste 0 892.2 -0.4 92
2017-11-01 05:00:00 6.5 8 Sudeste 13 Sudeste 0 892.3 -0.2 94
2017-11-01 04:00:00 6.1 8 Sur 13 Sudoeste 0 892.6 -0.4 83
2017-11-01 03:00:00 7.1 6 Sur 11 Sudoeste 0 892.6 -0.4 86
2017-11-01 02:00:00 6.9 6 Sur 10 Sur 0 892.5 -0.6 89
2017-11-01 01:00:00 7.7 5 Sur 10 Sudoeste 0 893 0 83
2017-11-01 00:00:00 8.9 4 Sur 10 Sur 0 893 0.6 83
2017-10-31 23:00:00 10.4 8 Sur 12 Sudeste 0 893.1 0.8 78
2017-10-31 22:00:00 10.3 5 Sur 15 Sudeste 0 893 0.8 79
2017-10-31 21:00:00 10.9 11 Sudeste 16 Sudeste 0 892.4 0.6 76
2017-10-31 20:00:00 11.8 9 Sudeste 16 Sudeste 0 892.3 0.7 73
2017-10-31 19:00:00 12.5 8 Sudeste 18 Sudeste 0 892.2 0.8 68
2017-10-31 18:00:00 14.4 11 Sudeste 26 Sudeste 0 891.8 0.4 59
2017-10-31 17:00:00 16 13 Sudeste 28 Este 0 891.6 -0.1 54
2017-10-31 16:00:00 16.8 15 Sudeste 28 Sudeste 0 891.4 -0.6 51
2017-10-31 15:00:00 16.9 13 Sudeste 29 Sudeste 0 891.4 -1 50
2017-10-31 14:00:00 16.7 13 Sudeste 27 Sudeste 0 891.7 -0.9 51
2017-10-31 13:00:00 15.7 13 Sur 26 Sudeste 0 892 -0.5 52
2017-10-31 12:00:00 14.6 15 Sudeste 27 Sudeste 0 892.4 0.3 53
2017-10-31 11:00:00 13 14 Sudeste 24 Sur 0 892.6 1.2 58
2017-10-31 10:00:00 8 6 Sur 13 Sudoeste 0 892.5 1.6 79
2017-10-31 09:00:00 3.4 8 Sudoeste 15 Sudoeste 0 892.1 1.2 95
2017-10-31 08:00:00 3.1 5 Sur 10 Sur 0 891.4 0.7 93
2017-10-31 07:00:00 3.4 8 Sudoeste 13 Sudoeste 0 890.9 0.3 96
2017-10-31 06:00:00 3.4 5 Sudoeste 13 Sudoeste 0 890.9 0 96
2017-10-31 05:00:00 3.2 7 Sudoeste 12 Sudoeste 0 890.7 -0.3 96
2017-10-31 04:00:00 3.2 6 Sur 11 Sur 0 890.6 -0.9 91
2017-10-31 03:00:00 3.6 2 Sudeste 4 Sudeste 0 890.9 -0.7 94
2017-10-31 02:00:00 4.4 3 Sudeste 7 Sudeste 0 891 -1 93
2017-10-31 01:00:00 5.3 0 Calma 8 Norte 0 891.5 -0.5 91
2017-10-31 00:00:00 5.9 0 Calma 5 Noroeste 0 891.6 0 88
2017-10-30 23:00:00 7.2 2 Sur 10 Norte 0 892 0.4 82
2017-10-30 22:00:00 8.2 3 Norte 14 Nordeste 0 892 0.7 80
2017-10-30 21:00:00 9.6 10 Norte 15 Nordeste 0 891.6 0.9 75
2017-10-30 20:00:00 10.8 9 Norte 17 Norte 0 891.6 1 70
2017-10-30 19:00:00 12.2 8 Norte 21 Norte 0 891.3 0.6 65
2017-10-30 18:00:00 14.1 10 Norte 22 Norte 0 890.7 -0.1 57
2017-10-30 17:00:00 14.7 10 Norte 22 Nordeste 0 890.6 -0.6 55
2017-10-30 16:00:00 14.7 15 Nordeste 26 Norte 0 890.7 -1 52
2017-10-30 15:00:00 14.3 13 Norte 26 Norte 0 890.8 -1.5 56
2017-10-30 14:00:00 13.1 13 Norte 26 Noroeste 0 891.2 -1.5 60
2017-10-30 13:00:00 12.7 13 Norte 23 Norte 0 891.7 -1.1 64
2017-10-30 12:00:00 11.3 10 Norte 18 Nordeste 0 892.3 -0.5 69
2017-10-30 11:00:00 9.3 8 Noroeste 14 Noroeste 0 892.7 0.3 76
2017-10-30 10:00:00 7.8 6 Noroeste 10 Nordeste 0 892.8 0.5 86
2017-10-30 09:00:00 6.7 8 Norte 15 Norte 0 892.8 0.6 90
2017-10-30 08:00:00 6.7 8 Norte 15 Norte 0 892.4 0.2 91
2017-10-30 07:00:00 6.8 6 Noroeste 13 Oeste 0 892.3 -0.2 91
2017-10-30 06:00:00 6.9 7 Noroeste 13 Noroeste 0 892.2 -0.7 90
2017-10-30 05:00:00 6.9 8 Noroeste 13 Noroeste 0 892.2 -0.7 91
2017-10-30 04:00:00 6.7 6 Noroeste 15 Noroeste 0 892.5 -0.9 92
2017-10-30 03:00:00 6.6 12 Noroeste 18 Noroeste 0 892.9 -0.8 92
2017-10-30 02:00:00 6.4 5 Noroeste 10 Noroeste 0 892.9 -1.1 93
2017-10-30 01:00:00 5.3 3 Noroeste 7 Noroeste 0 893.4 -0.8 89
2017-10-30 00:00:00 6.2 5 Noroeste 9 Noroeste 0 893.7 -0.3 82
2017-10-29 23:00:00 7.3 6 Noroeste 12 Norte 0 894 0.2 76
2017-10-29 22:00:00 8.9 5 Norte 14 Norte 0 894.2 0.4 61
2017-10-29 21:00:00 9.5 8 Norte 12 Norte 0 894 0.2 51
2017-10-29 20:00:00 9.3 0 Calma 2 Este 0 893.8 0 50
2017-10-29 19:00:00 12.1 0 Calma 11 Nordeste 0 893.8 -0.2 39
2017-10-29 18:00:00 15.3 8 Norte 23 Norte 0 893.8 -0.4 29
2017-10-29 17:00:00 16.1 14 Norte 26 Norte 0 893.8 -0.8 28
2017-10-29 16:00:00 16.5 16 Norte 29 Nordeste 0 894 -1.5 28
2017-10-29 15:00:00 17 15 Norte 26 Noroeste 0 894.2 -2 25
2017-10-29 14:00:00 17.4 13 Noroeste 21 Noroeste 0 894.6 -2 28
2017-10-29 13:00:00 16.9 8 Noroeste 15 Noroeste 0 895.5 -1.2 27
2017-10-29 12:00:00 14.4 7 Noroeste 14 Noroeste 0 896.2 -0.2 41
2017-10-29 11:00:00 11.7 3 Oeste 8 Oeste 0 896.6 0.5 55
2017-10-29 10:00:00 7.4 2 Sur 7 Sur 0 896.7 0.6 76
2017-10-29 09:00:00 3 3 Sur 9 Sur 0 896.4 0.1 91
2017-10-29 08:00:00 3.1 2 Sur 7 Sur 0 896.1 0 93
2017-10-29 07:00:00 3.3 2 Sudeste 5 Este 0 896.1 0 94
2017-10-29 06:00:00 3.4 2 Sudeste 4 Este 0 896.3 -0.1 91
2017-10-29 05:00:00 3.6 2 Sudeste 8 Sudoeste 0 896.1 -0.7 89
2017-10-29 04:00:00 4 4 Sur 6 Sudoeste 0 896.1 -1.2 92
2017-10-29 03:00:00 4.4 0 Calma 6 Sur 0 896.4 -1.3 89
2017-10-29 02:00:00 5.1 4 Sur 5 Sur 0 896.8 -0.9 86
2017-10-29 01:00:00 6.6 0 Calma 4 Noroeste 0 897.7 -0.1 80
2017-10-29 00:00:00 8.5 3 Noroeste 11 Norte 0 897.7 -0.1 74
2017-10-28 23:00:00 9.4 6 Noroeste 8 Noroeste 0 897.7 0.2 71
2017-10-28 22:00:00 11.3 3 Nordeste 15 Nordeste 0 897.8 0.5 62
2017-10-28 21:00:00 12.8 9 Nordeste 14 Norte 0 897.8 0.5 58
2017-10-28 20:00:00 14.4 5 Noroeste 10 Noroeste 0 897.5 0.1 57
2017-10-28 19:00:00 16.5 8 Norte 27 Norte 0 897.3 -0.3 50
2017-10-28 18:00:00 16.6 11 Norte 22 Norte 0 897.3 -0.9 50
2017-10-28 17:00:00 16.8 10 Norte 27 Noroeste 0 897.4 -1.2 51
2017-10-28 16:00:00 16.2 15 Noroeste 25 Noroeste 0 897.6 -1.6 53
2017-10-28 15:00:00 15.3 10 Norte 22 Norte 0 898.2 -1.3 57
2017-10-28 14:00:00 14.4 12 Noroeste 21 Noroeste 0 898.6 -1.3 61
2017-10-28 13:00:00 12.6 9 Noroeste 15 Noroeste 0 899.2 -0.8 70
2017-10-28 12:00:00 10.2 5 Noroeste 12 Noroeste 0 899.5 -0.1 81
2017-10-28 11:00:00 8.9 7 Noroeste 15 Norte 0 899.9 0.2 89
2017-10-28 10:00:00 8.3 10 Norte 17 Noroeste 0 900 -0.1 92
2017-10-28 09:00:00 6.8 4 Noroeste 7 Noroeste 0 899.6 -0.3 95
2017-10-28 08:00:00 5.9 2 Oeste 8 Oeste 0 899.7 -0.2 91
2017-10-28 07:00:00 6 5 Noroeste 9 Norte 0 900.1 -0.3 90
2017-10-28 06:00:00 6.5 4 Noroeste 8 Noroeste 0 899.9 -0.8 90
2017-10-28 05:00:00 7 3 Oeste 8 Noroeste 0 899.9 -1.2 82
2017-10-28 04:00:00 8.8 6 Oeste 10 Noroeste 0 900.4 -1.1 75
2017-10-28 03:00:00 10.3 5 Norte 11 Nordeste 0 900.7 -1.3 63
2017-10-28 02:00:00 11.5 9 Norte 14 Norte 0 901.1 -0.8 54
2017-10-28 01:00:00 11.4 5 Noroeste 8 Oeste 0 901.5 -0.4 64
2017-10-28 00:00:00 13 6 Noroeste 12 Nordeste 0 902 0.2 53
2017-10-27 23:00:00 13.3 5 Noroeste 10 Norte 0 901.9 0.3 49
2017-10-27 22:00:00 14.2 6 Norte 10 Norte 0 901.9 0.5 52
2017-10-27 21:00:00 16.2 4 Norte 10 Norte 0 901.8 0.5 45
2017-10-27 20:00:00 18.2 6 Noroeste 21 Norte 0 901.6 0.2 39
2017-10-27 19:00:00 20.6 12 Norte 29 Norte 0 901.4 -0.2 33
2017-10-27 18:00:00 22 19 Norte 33 Norte 0 901.3 -0.9 29
2017-10-27 17:00:00 22.7 17 Norte 31 Norte 0 901.4 -1.4 28
2017-10-27 16:00:00 22.4 19 Norte 30 Norte 0 901.6 -1.6 29
2017-10-27 15:00:00 22.3 14 Norte 27 Norte 0 902.2 -1.1 31
2017-10-27 14:00:00 21.8 12 Norte 24 Norte 0 902.8 -0.5 32
2017-10-27 13:00:00 20.8 13 Norte 28 Norte 0 903.2 0.3 35
2017-10-27 12:00:00 17.1 2 Sur 7 Sudoeste 0 903.3 0.8 38
2017-10-27 11:00:00 13.7 3 Sur 5 Sudoeste 0 903.3 1.1 46
2017-10-27 10:00:00 9 2 Sur 6 Sur 0 902.9 1 58
2017-10-27 09:00:00 7.6 2 Sudeste 5 Este 0 902.5 0.8 64
2017-10-27 08:00:00 7.8 3 Sudeste 5 Sur 0 902.2 0.5 63
2017-10-27 07:00:00 8 3 Este 5 Sudeste 0 901.9 0 61
2017-10-27 06:00:00 7.8 3 Sudeste 6 Sur 0 901.7 -0.5 62
2017-10-27 05:00:00 8.2 3 Sur 8 Sur 0 901.7 -0.8 61
2017-10-27 04:00:00 9 2 Este 6 Sudeste 0 901.9 -0.7 57
2017-10-27 03:00:00 8.6 0 Calma 4 Este 0 902.2 -0.4 61
2017-10-27 02:00:00 9.2 2 Sudeste 5 Este 0 902.5 0.2 58
2017-10-27 01:00:00 9.8 3 Este 5 Sudeste 0 902.6 0.7 55
2017-10-27 00:00:00 10.7 0 Calma 5 Sudoeste 0 902.6 1 53
2017-10-26 23:00:00 12.1 3 Sudeste 5 Sudeste 0 902.3 1.5 49
2017-10-26 22:00:00 13.6 3 Sudeste 10 Sudeste 0 901.9 1.8 44
2017-10-26 21:00:00 17 4 Nordeste 12 Norte 0 901.6 1.7 34
2017-10-26 20:00:00 18.8 9 Nordeste 12 Norte 0 900.8 1 31
2017-10-26 19:00:00 21.8 9 Norte 19 Norte 0 900.1 0.5 24
2017-10-26 18:00:00 23.4 10 Noroeste 19 Norte 0 899.9 0.1 21
2017-10-26 17:00:00 23.6 12 Norte 24 Noroeste 0 899.8 -0.3 21
2017-10-26 16:00:00 23.8 11 Norte 19 Noroeste 0 899.6 -0.7 20
2017-10-26 15:00:00 23.9 10 Norte 19 Norte 0 899.8 -0.4 22
2017-10-26 14:00:00 23.5 3 Sudoeste 8 Sudoeste 0 900.1 0.1 23
2017-10-26 13:00:00 21.4 2 Norte 6 Noroeste 0 900.3 0.6 30
2017-10-26 12:00:00 17.6 3 Oeste 5 Sudoeste 0 900.2 1.1 37
2017-10-26 11:00:00 13.5 4 Sudoeste 12 Sudoeste 0 900 1.2 45
2017-10-26 10:00:00 10.4 8 Sur 10 Sur 0 899.7 1.3 56
2017-10-26 09:00:00 8.9 3 Sudeste 9 Sur 0 899.1 1 63
2017-10-26 08:00:00 9.3 3 Sur 7 Sur 0 898.8 0.8 63
2017-10-26 07:00:00 11.8 6 Sur 15 Sur 0 898.4 0.3 53
2017-10-26 06:00:00 12.4 4 Sudeste 15 Sudeste 0 898.1 -0.1 51
2017-10-26 05:00:00 12.6 8 Sudeste 14 Sudeste 0 898 -0.3 50
2017-10-26 04:00:00 13.2 10 Sudeste 14 Sudeste 0 898.1 -0.4 48
2017-10-26 03:00:00 14.2 8 Sudeste 15 Sudeste 0 898.2 -0.3 45
2017-10-26 02:00:00 14.1 8 Sudeste 18 Sudeste 0 898.3 0.3 45
2017-10-26 01:00:00 14.8 13 Sudeste 21 Sudeste 0 898.5 0.8 44
2017-10-26 00:00:00 16.2 10 Sur 23 Sur 0 898.5 1.2 39